Colts Neck, New Jersey
Current Conditions -  °F | °C
As of 9:55 AM on Monday 22 Dec 2014 (Local Time) from KBLM Reporting Station
Overcast Overcast  
Wind Chill: 34°   Ceiling: 600
Heat Index: 37°   Visibility: 5mi
Dew Point: 30°   Wind: 5mph
Humidity: 75%   Direction: 360°N
Pressure: 30.31"   Gusts: NA
Location:  40.29°N, 74.17°W
Report Text: KBLM 221455Z AUTO 36004KT 5SM OVC006 03/M01 A3031 RMK AO1 52003
Loading
Personal Weather Stations






























Interactive Weather Map New forecast layout! Learn more

10-Day Weather Forecast

Advertisements
Track Severe Weather on mobile